createdAt,value
2023-03-16T00:02:25.478Z,19.00
2023-03-16T00:05:28.836Z,21.50
2023-03-16T00:08:33.572Z,18.40
2023-03-16T00:11:36.945Z,17.75
2023-03-16T00:14:40.170Z,20.60
2023-03-16T00:17:48.460Z,22.60
2023-03-16T00:20:53.008Z,20.50
2023-03-16T00:23:57.793Z,20.00
2023-03-16T00:27:01.162Z,20.00
2023-03-16T00:30:05.296Z,21.60
2023-03-16T00:33:08.587Z,19.60
2023-03-16T00:36:12.480Z,20.00
2023-03-16T00:39:17.176Z,20.00
2023-03-16T00:42:21.315Z,18.25
2023-03-16T00:45:25.148Z,17.33
2023-03-16T00:48:28.431Z,20.25
2023-03-16T00:51:34.031Z,18.00
2023-03-16T00:54:38.683Z,20.00
2023-03-16T00:57:41.929Z,18.50
2023-03-16T01:00:46.089Z,20.40
2023-03-16T01:03:49.383Z,16.80
2023-03-16T01:06:52.959Z,18.00
2023-03-16T01:09:58.322Z,20.75
2023-03-16T01:13:03.653Z,20.75
2023-03-16T01:16:07.880Z,19.60
2023-03-16T01:19:12.691Z,20.00
2023-03-16T01:22:16.764Z,20.75
2023-03-16T01:25:21.795Z,20.00
2023-03-16T01:28:26.819Z,22.00
2023-03-16T01:31:32.304Z,20.50
2023-03-16T01:34:36.089Z,19.75
2023-03-16T01:37:41.533Z,19.00
2023-03-16T01:40:53.940Z,20.00
2023-03-16T01:43:58.652Z,20.60
2023-03-16T01:47:03.009Z,19.00
2023-03-16T01:50:07.804Z,21.60
2023-03-16T01:53:14.563Z,20.00
2023-03-16T01:56:24.800Z,23.00
2023-03-16T01:59:33.576Z,19.00
2023-03-16T02:02:39.907Z,20.00
2023-03-16T02:05:47.162Z,20.00
2023-03-16T02:08:55.487Z,20.00
2023-03-16T02:12:01.617Z,21.40
2023-03-16T02:15:07.133Z,21.60
2023-03-16T02:18:11.058Z,20.00
2023-03-16T02:21:25.542Z,20.00
2023-03-16T02:24:29.084Z,20.60
2023-03-16T02:27:42.250Z,20.00
2023-03-16T02:30:47.938Z,21.75
2023-03-16T02:33:53.669Z,22.00
2023-03-16T02:36:59.703Z,22.00
2023-03-16T02:40:21.429Z,27.60
2023-03-16T02:43:33.462Z,26.00
2023-03-16T02:47:03.543Z,26.60
2023-03-16T02:50:08.595Z,27.60
2023-03-16T02:53:11.840Z,26.00
2023-03-16T02:56:15.153Z,31.00
2023-03-16T02:59:18.505Z,29.00
2023-03-16T03:02:23.788Z,28.00
2023-03-16T03:05:27.342Z,29.00
2023-03-16T03:08:32.983Z,30.00
2023-03-16T03:11:36.299Z,30.00
2023-03-16T03:14:39.893Z,29.00
2023-03-16T03:17:45.710Z,31.00
2023-03-16T03:20:49.038Z,30.80
2023-03-16T03:23:53.929Z,31.00
2023-03-16T03:26:57.181Z,31.00
2023-03-16T03:30:00.874Z,31.00
2023-03-16T03:33:06.989Z,33.00
2023-03-16T03:36:11.414Z,31.00
2023-03-16T03:39:17.308Z,30.40
2023-03-16T03:42:23.941Z,31.00
2023-03-16T03:45:27.706Z,30.00
2023-03-16T03:48:32.674Z,31.00
2023-03-16T03:51:36.869Z,33.00
2023-03-16T03:54:44.272Z,32.00
2023-03-16T03:57:51.179Z,32.40
2023-03-16T04:00:54.425Z,31.00
2023-03-16T04:03:59.328Z,31.40
2023-03-16T04:07:03.931Z,32.00
2023-03-16T04:10:08.655Z,33.00
2023-03-16T04:13:16.020Z,32.00
2023-03-16T04:16:19.490Z,33.00
2023-03-16T04:19:27.582Z,34.50
2023-03-16T04:22:32.080Z,34.00
2023-03-16T04:25:38.485Z,35.00
2023-03-16T04:28:43.378Z,34.60
2023-03-16T04:31:51.077Z,33.00
2023-03-16T04:34:56.742Z,33.00
2023-03-16T04:38:10.984Z,33.00
2023-03-16T04:41:21.951Z,32.00
2023-03-16T04:44:33.068Z,34.80
2023-03-16T04:47:37.922Z,35.00
2023-03-16T04:50:43.607Z,32.00
2023-03-16T04:53:47.055Z,32.40
2023-03-16T04:56:58.046Z,33.80
2023-03-16T05:00:33.724Z,34.00
2023-03-16T05:03:44.745Z,33.00
2023-03-16T05:06:50.092Z,33.25
2023-03-16T05:09:57.002Z,33.67
2023-03-16T05:13:00.934Z,33.40
2023-03-16T05:16:05.032Z,33.80
2023-03-16T05:19:13.071Z,33.00
2023-03-16T05:22:17.984Z,33.00
2023-03-16T05:25:51.763Z,33.00
2023-03-16T05:28:58.397Z,33.00
2023-03-16T05:32:03.866Z,33.00
2023-03-16T05:35:08.946Z,31.00
2023-03-16T05:38:14.133Z,33.00
2023-03-16T05:41:21.515Z,32.20
2023-03-16T05:44:38.482Z,32.00
2023-03-16T05:47:55.987Z,35.00
2023-03-16T05:50:59.413Z,32.20
2023-03-16T05:54:06.901Z,33.60
2023-03-16T05:57:19.087Z,34.00
2023-03-16T06:00:27.806Z,32.00
2023-03-16T06:03:42.468Z,32.00
2023-03-16T06:06:50.390Z,32.60
2023-03-16T06:09:59.283Z,33.80
2023-03-16T06:13:04.048Z,32.80
2023-03-16T06:16:09.104Z,32.00
2023-03-16T06:19:13.047Z,32.40
2023-03-16T06:22:18.586Z,33.00
2023-03-16T06:25:24.197Z,33.00
2023-03-16T06:28:28.556Z,33.00
2023-03-16T06:31:34.128Z,31.00
2023-03-16T06:34:38.949Z,33.00
2023-03-16T06:37:43.522Z,31.80
2023-03-16T06:41:19.419Z,31.00
2023-03-16T06:44:24.135Z,31.00
2023-03-16T06:47:34.960Z,30.00
2023-03-16T06:50:39.171Z,31.00
2023-03-16T06:53:43.071Z,30.00
2023-03-16T06:56:47.961Z,31.00
2023-03-16T06:59:51.346Z,28.00
2023-03-16T07:02:54.642Z,28.00
2023-03-16T07:05:58.289Z,30.00
2023-03-16T07:09:01.705Z,27.50
2023-03-16T07:12:08.676Z,29.80
2023-03-16T07:15:12.488Z,29.00
2023-03-16T07:18:16.517Z,28.00
2023-03-16T07:21:20.300Z,28.00
2023-03-16T07:24:24.389Z,28.20
2023-03-16T07:27:30.017Z,30.00
2023-03-16T07:30:35.218Z,29.00
2023-03-16T07:33:38.797Z,28.80
2023-03-16T07:36:44.712Z,30.00
2023-03-16T07:39:48.220Z,28.00
2023-03-16T07:42:55.783Z,26.00
2023-03-16T07:46:04.283Z,28.00
2023-03-16T07:49:09.731Z,28.00
2023-03-16T07:52:14.788Z,28.00
2023-03-16T07:55:19.878Z,28.00
2023-03-16T07:58:25.322Z,28.00
2023-03-16T08:01:28.998Z,28.80
2023-03-16T08:04:32.661Z,28.00
2023-03-16T08:07:37.023Z,28.00
2023-03-16T08:10:49.357Z,27.00
2023-03-16T08:13:57.371Z,27.00
2023-03-16T08:17:08.436Z,26.00
2023-03-16T08:20:15.068Z,27.20
2023-03-16T08:23:19.561Z,23.40
2023-03-16T08:26:24.650Z,23.00
2023-03-16T08:29:34.586Z,22.00
2023-03-16T08:32:41.142Z,19.33
2023-03-16T08:35:45.999Z,15.20
2023-03-16T08:39:05.576Z,19.20
2023-03-16T08:42:15.285Z,22.40
2023-03-16T08:45:24.407Z,20.00
2023-03-16T08:48:29.015Z,22.00
2023-03-16T08:51:32.697Z,20.00
2023-03-16T08:54:35.948Z,17.40
2023-03-16T08:57:39.953Z,22.00
2023-03-16T09:00:46.821Z,20.00
2023-03-16T09:03:51.519Z,19.00
2023-03-16T09:07:07.923Z,22.00
2023-03-16T09:10:15.518Z,22.00
2023-03-16T09:13:19.362Z,20.00
2023-03-16T09:16:28.221Z,20.00
2023-03-16T09:19:47.856Z,19.00
2023-03-16T09:22:53.653Z,14.60
2023-03-16T09:25:59.446Z,15.00
2023-03-16T09:29:03.519Z,17.20
2023-03-16T09:32:09.026Z,20.00
2023-03-16T09:35:12.525Z,19.00
2023-03-16T09:38:17.744Z,18.60
2023-03-16T09:41:38.658Z,20.00
2023-03-16T09:44:51.588Z,18.00
2023-03-16T09:48:02.637Z,15.60
2023-03-16T09:51:12.024Z,17.20
2023-03-16T09:54:27.765Z,15.00
2023-03-16T09:57:34.833Z,18.00
2023-03-16T10:00:42.631Z,13.00
2023-03-16T10:04:02.879Z,14.00
2023-03-16T10:07:20.421Z,13.00
2023-03-16T10:10:42.326Z,14.80
2023-03-16T10:13:52.677Z,15.60
2023-03-16T10:17:00.668Z,14.00
2023-03-16T10:20:09.393Z,14.40
2023-03-16T10:23:19.180Z,12.00
2023-03-16T10:26:26.997Z,12.40
2023-03-16T10:29:33.025Z,10.00
2023-03-16T10:32:36.920Z,10.60
2023-03-16T10:35:48.362Z,12.00
2023-03-16T10:38:55.434Z,10.00
2023-03-16T10:42:00.361Z,10.80
2023-03-16T10:45:04.109Z,9.75
2023-03-16T10:48:09.138Z,12.00
2023-03-16T10:51:16.622Z,10.00
2023-03-16T10:54:29.439Z,9.80
2023-03-16T10:57:35.242Z,10.00
2023-03-16T11:00:43.238Z,11.00
2023-03-16T11:03:51.319Z,9.00
2023-03-16T11:06:58.068Z,8.75
2023-03-16T11:10:01.929Z,8.40
2023-03-16T11:13:10.622Z,8.40
2023-03-16T11:16:25.401Z,9.60
2023-03-16T11:19:31.045Z,9.00
2023-03-16T11:22:35.479Z,9.00
2023-03-16T11:25:47.018Z,7.00
2023-03-16T11:28:59.292Z,7.00
2023-03-16T11:32:07.404Z,8.80
2023-03-16T11:35:16.461Z,8.80
2023-03-16T11:38:22.847Z,12.00
2023-03-16T11:41:37.538Z,12.00
2023-03-16T11:44:51.899Z,12.00
2023-03-16T11:48:11.499Z,10.60
2023-03-16T11:51:30.552Z,11.00
2023-03-16T11:54:48.704Z,12.60
2023-03-16T11:58:04.669Z,12.00
2023-03-16T12:01:18.659Z,11.00
2023-03-16T12:04:45.140Z,12.00
2023-03-16T12:08:01.681Z,12.00
2023-03-16T12:11:08.397Z,12.00
2023-03-16T12:14:18.312Z,13.50
2023-03-16T12:17:26.968Z,12.00
2023-03-16T12:20:35.836Z,9.00
2023-03-16T12:23:42.860Z,9.00
2023-03-16T12:26:49.679Z,12.00
2023-03-16T12:30:02.519Z,12.00
2023-03-16T12:33:15.664Z,7.00
2023-03-16T12:36:47.765Z,7.60
2023-03-16T12:40:08.002Z,10.40
2023-03-16T12:43:29.625Z,9.60
2023-03-16T12:46:43.179Z,7.75
2023-03-16T12:49:46.812Z,9.00
2023-03-16T12:52:51.903Z,9.00
2023-03-16T12:55:56.630Z,8.40
2023-03-16T12:59:04.183Z,5.60
2023-03-16T13:02:17.655Z,4.40
2023-03-16T13:05:32.357Z,7.00
2023-03-16T13:08:44.063Z,7.20
2023-03-16T13:11:51.321Z,6.00
2023-03-16T13:14:57.099Z,6.60
2023-03-16T13:18:23.177Z,8.00
2023-03-16T13:21:37.687Z,8.00
2023-03-16T13:24:41.314Z,9.40
2023-03-16T13:27:47.333Z,6.50
2023-03-16T13:30:51.798Z,8.00
2023-03-16T13:34:00.008Z,8.50
2023-03-16T13:37:04.288Z,9.00
2023-03-16T13:40:20.293Z,9.00
2023-03-16T13:43:25.435Z,9.00
2023-03-16T13:46:31.767Z,9.00
2023-03-16T13:49:35.424Z,6.00
2023-03-16T13:52:39.142Z,8.40
2023-03-16T13:55:45.422Z,5.00
2023-03-16T13:58:50.829Z,6.50
2023-03-16T14:01:59.808Z,6.00
2023-03-16T14:05:11.657Z,6.00
2023-03-16T14:08:19.631Z,6.00
2023-03-16T14:11:22.770Z,5.00
2023-03-16T14:14:29.373Z,6.00
2023-03-16T14:17:34.052Z,4.00
2023-03-16T14:20:41.359Z,6.40
2023-03-16T14:23:47.857Z,6.00
2023-03-16T14:26:50.998Z,5.00
2023-03-16T14:30:00.691Z,6.00
2023-03-16T14:33:07.320Z,7.00
2023-03-16T14:36:15.963Z,5.80
2023-03-16T14:39:22.474Z,5.00
2023-03-16T14:42:29.388Z,5.00
2023-03-16T14:45:34.901Z,6.00
2023-03-16T14:48:41.528Z,7.00
2023-03-16T14:51:46.983Z,7.00
2023-03-16T14:54:53.617Z,7.00
2023-03-16T14:57:56.808Z,6.60
2023-03-16T15:01:00.489Z,5.25
2023-03-16T15:04:06.037Z,7.00
2023-03-16T15:07:24.002Z,5.50
2023-03-16T15:10:30.465Z,5.00
2023-03-16T15:13:53.059Z,6.20
2023-03-16T15:16:56.366Z,9.00
2023-03-16T15:20:01.263Z,5.20
2023-03-16T15:23:05.129Z,7.00
2023-03-16T15:26:10.133Z,8.20
2023-03-16T15:29:14.917Z,7.00
2023-03-16T15:32:18.162Z,7.00
2023-03-16T15:35:22.810Z,6.00
2023-03-16T15:38:29.134Z,6.00
2023-03-16T15:41:38.278Z,6.40
2023-03-16T15:44:45.054Z,4.60
2023-03-16T15:47:49.160Z,4.00
2023-03-16T15:50:56.112Z,5.00
2023-03-16T15:54:02.125Z,5.00
2023-03-16T15:57:05.793Z,4.40
2023-03-16T16:00:28.421Z,5.00
2023-03-16T16:03:31.945Z,6.00
2023-03-16T16:06:36.371Z,7.50
2023-03-16T16:09:39.578Z,4.00
2023-03-16T16:12:42.820Z,6.50
2023-03-16T16:15:47.282Z,5.75
2023-03-16T16:18:50.875Z,5.75
2023-03-16T16:21:55.319Z,7.40
2023-03-16T16:24:58.462Z,5.00
2023-03-16T16:28:01.656Z,6.75
2023-03-16T16:31:11.176Z,6.00
2023-03-16T16:34:15.994Z,6.00
2023-03-16T16:37:20.402Z,6.00
2023-03-16T16:40:26.000Z,5.75
2023-03-16T16:43:35.466Z,7.00
2023-03-16T16:46:41.489Z,7.00
2023-03-16T16:49:44.525Z,6.00
2023-03-16T16:52:50.100Z,6.25
2023-03-16T16:55:53.419Z,7.00
2023-03-16T16:58:58.128Z,5.20
2023-03-16T17:02:03.298Z,10.40
2023-03-16T17:05:06.702Z,9.00
2023-03-16T17:08:12.685Z,9.00
2023-03-16T17:11:19.959Z,8.00
2023-03-16T17:14:27.646Z,7.50
2023-03-16T17:17:30.956Z,11.00
2023-03-16T17:20:34.473Z,10.40
2023-03-16T17:23:39.039Z,9.80
2023-03-16T17:26:44.853Z,10.00
2023-03-16T17:29:47.846Z,8.00
2023-03-16T17:32:52.235Z,9.00
2023-03-16T17:35:55.432Z,9.50
2023-03-16T17:39:02.206Z,7.60
2023-03-16T17:42:08.209Z,9.60
2023-03-16T17:45:18.420Z,10.00
2023-03-16T17:48:23.899Z,9.60
2023-03-16T17:51:27.447Z,13.00
2023-03-16T17:54:32.071Z,9.50
2023-03-16T17:57:35.356Z,11.75
2023-03-16T18:00:39.531Z,10.00
2023-03-16T18:03:44.370Z,10.00
2023-03-16T18:06:48.191Z,10.40
2023-03-16T18:09:53.603Z,9.00
2023-03-16T18:13:00.761Z,10.40
2023-03-16T18:16:05.866Z,10.60
2023-03-16T18:19:25.852Z,13.00
2023-03-16T18:22:29.459Z,14.00
2023-03-16T18:25:39.065Z,12.60
2023-03-16T18:28:43.847Z,11.60
2023-03-16T18:31:48.595Z,10.80
2023-03-16T18:34:52.813Z,13.40
2023-03-16T18:37:56.624Z,15.60
2023-03-16T18:41:03.346Z,13.00
2023-03-16T18:44:18.461Z,15.00
2023-03-16T18:47:31.393Z,15.00
2023-03-16T18:50:34.651Z,16.00
2023-03-16T18:53:37.971Z,15.80
2023-03-16T18:56:42.396Z,14.00
2023-03-16T18:59:45.817Z,16.00
2023-03-16T19:02:54.307Z,18.20
2023-03-16T19:05:59.874Z,18.00
2023-03-16T19:09:08.184Z,17.00
2023-03-16T19:12:17.169Z,18.00
2023-03-16T19:15:23.045Z,16.20
2023-03-16T19:18:26.697Z,19.00
2023-03-16T19:21:29.813Z,16.60
2023-03-16T19:24:36.744Z,15.25
2023-03-16T19:27:41.852Z,17.00
2023-03-16T19:30:46.669Z,18.00
2023-03-16T19:33:51.999Z,18.40
2023-03-16T19:36:55.076Z,20.00
2023-03-16T19:39:58.107Z,19.50
2023-03-16T19:43:02.590Z,17.50
2023-03-16T19:46:06.151Z,19.00
2023-03-16T19:49:16.660Z,21.00
2023-03-16T19:52:21.171Z,20.00
2023-03-16T19:55:28.409Z,20.00
2023-03-16T19:58:38.529Z,19.00
2023-03-16T20:01:42.056Z,20.00
2023-03-16T20:04:45.312Z,20.00
2023-03-16T20:07:49.060Z,20.00
2023-03-16T20:10:52.860Z,22.00
2023-03-16T20:13:59.545Z,23.00
2023-03-16T20:17:02.945Z,21.20
2023-03-16T20:20:07.667Z,21.40
2023-03-16T20:23:20.316Z,24.00
2023-03-16T20:26:27.070Z,21.50
2023-03-16T20:29:32.804Z,24.00
2023-03-16T20:32:36.905Z,19.80
2023-03-16T20:35:40.036Z,21.00
2023-03-16T20:38:43.262Z,22.75
2023-03-16T20:41:46.642Z,23.00
2023-03-16T20:44:52.108Z,26.00
2023-03-16T20:47:55.863Z,27.00
2023-03-16T20:51:00.141Z,25.75
2023-03-16T20:54:03.285Z,25.00
2023-03-16T20:57:07.980Z,25.00
2023-03-16T21:00:26.807Z,24.40
2023-03-16T21:03:33.411Z,24.80
2023-03-16T21:06:36.482Z,26.40
2023-03-16T21:09:39.822Z,24.00
2023-03-16T21:12:45.888Z,26.00
2023-03-16T21:15:51.090Z,24.40
2023-03-16T21:18:54.652Z,24.50
2023-03-16T21:21:57.720Z,26.00
2023-03-16T21:25:01.188Z,24.40
2023-03-16T21:28:06.092Z,25.00
2023-03-16T21:31:19.697Z,25.25
2023-03-16T21:34:25.217Z,25.00
2023-03-16T21:37:30.404Z,26.00
2023-03-16T21:40:33.470Z,24.00
2023-03-16T21:43:36.787Z,23.00
2023-03-16T21:46:41.257Z,22.00
2023-03-16T21:49:44.726Z,25.00
2023-03-16T21:52:48.220Z,26.00
2023-03-16T21:55:52.284Z,23.20
2023-03-16T21:58:57.350Z,23.40
2023-03-16T22:02:02.590Z,24.00
2023-03-16T22:05:23.688Z,22.80
2023-03-16T22:08:29.106Z,23.80
2023-03-16T22:11:32.981Z,24.20
2023-03-16T22:14:35.964Z,24.00
2023-03-16T22:17:40.794Z,22.00
2023-03-16T22:20:44.059Z,23.00
2023-03-16T22:23:47.278Z,23.00
2023-03-16T22:26:50.749Z,25.60
2023-03-16T22:29:54.176Z,23.00
2023-03-16T22:33:01.240Z,23.00
2023-03-16T22:36:08.320Z,25.50
2023-03-16T22:39:15.131Z,26.00
2023-03-16T22:42:27.998Z,25.80
2023-03-16T22:45:34.316Z,24.00
2023-03-16T22:48:38.877Z,27.00
2023-03-16T22:51:42.147Z,26.00
2023-03-16T22:54:47.870Z,26.00
2023-03-16T22:57:52.777Z,26.40
2023-03-16T23:00:56.074Z,27.00
2023-03-16T23:04:00.742Z,25.75
2023-03-16T23:07:03.778Z,28.00
2023-03-16T23:10:08.246Z,27.00
2023-03-16T23:13:15.714Z,28.00
2023-03-16T23:16:21.851Z,27.00
2023-03-16T23:19:29.854Z,28.67
2023-03-16T23:22:33.237Z,29.00
2023-03-16T23:25:37.165Z,28.25
2023-03-16T23:28:41.809Z,31.00
2023-03-16T23:31:44.900Z,31.00
2023-03-16T23:34:49.318Z,30.60
2023-03-16T23:37:53.176Z,31.40
2023-03-16T23:40:56.407Z,30.80
2023-03-16T23:43:59.526Z,31.00
2023-03-16T23:47:02.709Z,30.00
2023-03-16T23:50:11.928Z,31.00
2023-03-16T23:53:17.854Z,30.00
2023-03-16T23:56:21.651Z,30.00
2023-03-16T23:59:25.799Z,30.00
